Last 30 Days

Paso Robles Airport ETo

Daily Data | America/Los_Angeles
as of 12/6/22 7:59 PM PST
Date Daily Max Temp (°F) Time of Max Temp Daily Min Temp (°F) Time of Min Temp Daily Rain (In) Month Precip (In) Season Precip (In) Wind Spd (mph) Daily Max Wind (mph) Time of Max Wind Daily ETo (in) 7 Day ETo (in) Daily Solar Rad (Cal/cm2) Dew Pt (°F) Max RH (%) Min RH (%) Hrs 70-85F (hrs) Hrs > 95F (hrs) GDDs (DL) GDDs (Mx/Mn) Max Inversion (°F) Max Inversion Time Min Inversion (°F) Min Inversion Time Storm Total (In) Max 1 Min Rain (In) Max 1 Min Rain Time Max 15 Min Rain (In) Max 15 Min Precip Time Max 60 Min Rain (In) Max 60 Min Rain Time Hrs <= 32F (hrs) Hrs <= 28F (hrs) Chilling <=45F (hrs) Chilling <=45F Seas (hrs) MinBV Day (V)
12/5/22 58.9 1424 41.5 0116 0.00 1.68 2.61 0.4 8.4 1533 0.045 0.32 206 44.7 99 60 0.00 0.00 1.4 0.2 3.7 1058 -2.7 1158 1.68 - - - - - - 0.0 0.0 10.4 397 12.4
12/4/22 60.7 1314 41.9 2318 0.18 1.68 2.61 1.4 10.8 0016 0.042 0.37 191 49.3 98 65 0.00 0.00 4.1 1.3 3.4 1903 -1.8 1128 1.68 0.01 0505 0.03 0100 0.14 0001 0.0 0.0 2.9 386 12.4
12/3/22 63.6 1407 45.8 0001 0.86 1.50 2.43 4.7 19.2 1437 0.041 0.38 168 52.1 98 80 0.00 0.00 5.3 4.7 0.6 0948 -2.0 1229 1.50 0.01 2351 0.05 2340 0.14 2355 0.0 0.0 0.0 383 12.4
12/2/22 52.7 1337 38.6 0742 0.01 0.64 1.57 2.4 14.5 1506 0.038 0.41 190 42.3 97 73 0.00 0.00 0.1 0.0 1.2 0926 -2.9 1102 0.64 0.01 2326 0.01 2340 0.01 0001 0.0 0.0 9.9 383 12.4
12/1/22 57.7 1159 40.1 0249 0.63 0.63 1.56 4.7 25.6 1144 0.035 0.44 123 43.9 96 60 0.00 0.00 0.7 0.0 3.1 0147 -2.4 1158 0.63 0.01 2338 0.05 2056 0.13 1800 0.0 0.0 10.6 374 12.4
11/30/22 61.1 1253 25.2 0608 0.00 0.64 0.93 1.4 15.8 1328 0.054 0.48 234 35.4 92 49 0.00 0.00 2.0 0.0 7.5 0805 -2.9 1251 - - - - - - - 7.9 4.9 11.7 363 12.3
11/29/22 58.8 1330 28.1 0646 0.00 0.64 0.93 1.8 15.8 1301 0.068 0.50 294 33.2 95 41 0.00 0.00 1.5 0.0 9.0 2112 -3.5 0802 - - - - - - - 4.8 0.0 15.7 351 12.3
11/28/22 63.5 1408 29.2 0608 0.00 0.64 0.93 5.9 25.9 1637 0.088 0.50 290 34.9 88 34 0.00 0.00 2.7 0.0 7.4 0231 -2.3 0903 - - - - - - - 3.4 0.0 11.7 336 12.3
11/27/22 68.4 1439 26.2 0654 0.00 0.64 0.93 0.8 6.8 1713 0.061 0.50 259 29.1 88 26 0.00 0.00 4.1 0.0 8.4 2058 -2.5 1026 - - - - - - - 6.8 3.9 11.6 324 12.3
11/26/22 71.1 1443 26.8 0412 0.00 0.64 0.93 0.7 7.1 1552 0.068 0.52 295 25.8 83 17 0.46 0.00 4.8 0.0 15.9 2016 -3.4 0852 - - - - - - - 6.2 1.6 13.1 312 12.3
11/25/22 76.1 1349 27.8 0543 0.00 0.64 0.93 0.5 7.8 0759 0.065 0.55 299 26.2 86 12 3.46 0.00 5.2 2.0 13.9 1820 -3.8 1411 - - - - - - - 6.6 0.1 13.0 299 12.3
11/24/22 75.3 1507 26.9 0617 0.00 0.64 0.93 0.7 6.8 1516 0.073 0.56 307 29.8 92 17 3.11 0.00 5.5 1.1 12.7 1906 -2.7 1018 - - - - - - - 4.4 0.5 12.7 286 12.3
11/23/22 68.7 1329 27.3 0619 0.00 0.64 0.93 2.0 18.2 1454 0.081 0.56 292 31.1 89 28 0.00 0.00 3.8 0.0 10.9 2322 -2.4 0950 - - - - - - - 3.9 0.8 12.2 273 12.3
11/22/22 69.9 1429 21.7 0648 0.00 0.64 0.93 1.0 10.5 1755 0.069 0.57 304 28.2 91 22 0.00 0.00 3.9 0.0 10.0 2315 -4.8 0810 - - - - - - - 7.8 5.2 13.9 261 12.2
11/21/22 69.3 1415 22.1 0617 0.00 0.64 0.93 1.7 12.1 1558 0.080 0.57 306 27.9 91 21 0.00 0.00 3.6 0.0 8.8 2249 -3.2 1339 - - - - - - - 7.9 6.4 14.1 247 12.3
11/20/22 69.0 1402 22.7 0652 0.00 0.64 0.93 1.5 13.2 1447 0.085 0.57 322 25.5 90 15 0.00 0.00 3.9 0.0 13.5 2004 -3.1 1113 - - - - - - - 7.4 5.1 14.4 233 12.3
11/19/22 67.5 1402 25.3 0623 0.00 0.64 0.93 2.1 15.2 1328 0.094 0.55 318 26.5 94 16 0.00 0.00 3.9 0.0 13.6 1923 -2.3 1107 - - - - - - - 6.6 2.3 14.3 219 12.3
11/18/22 65.7 1330 26.8 0610 0.00 0.64 0.93 1.6 15.2 1417 0.081 0.54 310 31.6 93 29 0.00 0.00 3.3 0.0 12.0 2015 -2.7 0759 - - - - - - - 5.7 1.2 14.0 204 12.3
11/17/22 73.4 1433 25.7 0459 0.00 0.64 0.93 0.6 7.4 1729 0.071 0.52 316 29.8 93 20 1.18 0.00 4.4 0.0 11.5 1921 -3.5 1040 - - - - - - - 7.3 3.7 13.8 190 12.3
11/16/22 69.8 1358 27.2 0643 0.00 0.64 0.93 1.5 13.2 1403 0.093 0.53 331 30.8 95 20 0.00 0.00 4.5 0.0 11.4 2022 -2.6 0809 - - - - - - - 3.6 0.4 14.0 176 12.3
11/15/22 64.2 1439 29.7 0112 0.00 0.64 0.93 1.9 17.8 1422 0.068 0.51 288 34.9 98 32 0.00 0.00 2.5 0.0 9.3 2132 -2.6 1105 - - - - - - - 1.7 0.0 14.5 162 12.3
11/14/22 66.2 1558 25.7 0603 0.00 0.64 0.93 0.6 7.1 1219 0.073 0.47 343 32.4 96 24 0.00 0.00 2.8 0.0 7.6 0730 -3.7 1109 - - - - - - - 6.2 2.8 13.8 148 12.3
11/13/22 61.7 1411 32.3 0629 0.00 0.64 0.93 1.7 13.2 0029 0.072 0.46 337 36.8 96 43 0.00 0.00 2.1 0.0 7.6 2331 -3.1 1218 - - - - - - - 0.0 0.0 13.6 134 12.4
11/12/22 62.2 1443 28.4 0541 0.00 0.64 0.93 3.8 17.8 1748 0.084 0.45 337 36.8 98 41 0.00 0.00 2.4 0.0 5.4 0155 -2.9 1121 - - - - - - - 5.5 0.0 10.3 121 12.3
11/11/22 64.2 1604 28.4 0640 0.00 0.64 0.93 0.6 8.4 1232 0.060 0.46 302 36.3 97 32 0.00 0.00 2.4 0.0 7.5 2221 -3.2 1108 - - - - - - - 4.7 0.0 13.7 110 12.4
11/10/22 59.6 1327 31.2 0635 0.00 0.64 0.93 1.7 14.8 1455 0.076 0.48 326 37.0 98 45 0.00 0.00 1.7 0.0 7.1 2244 -3.4 1136 0.64 - - - - - - 1.2 0.0 14.8 97 12.4
11/9/22 58.5 1513 37.6 0641 0.04 0.64 0.93 2.2 13.8 1130 0.074 0.50 348 41.0 98 50 0.00 0.00 1.5 0.0 4.5 2302 -2.9 1009 0.64 0.01 0259 0.03 0221 0.04 0306 0.0 0.0 11.1 82 12.3
11/8/22 55.6 1459 38.6 0002 0.49 0.60 0.89 3.9 26.2 0820 0.033 0.50 140 43.1 94 66 0.00 0.00 0.7 0.0 3.0 2218 -2.2 1456 0.60 0.05 0916 0.13 0924 0.31 0929 0.0 0.0 9.0 71 12.4
11/7/22 60.8 1259 38.4 2357 0.11 0.11 0.40 2.4 16.8 1413 0.057 0.54 217 43.8 96 45 0.00 0.00 2.2 0.0 5.6 1954 -2.8 1259 0.11 0.01 0903 0.04 0833 0.09 0910 0.0 0.0 4.3 62 12.4
11/6/22 68.5 1526 40.5 0443 0.00 0.00 0.29 1.4 18.2 1519 0.068 0.52 241 42.8 83 44 0.00 0.00 6.3 4.5 4.0 0422 -2.7 1057 - - - - - - - 0.0 0.0 5.9 58 12.4
Max 76.1 - 45.8 - 0.86 1.68 2.61 5.9 26.2 - 0.094 0.57 348 52.1 99 80 3.46 0.00 6.3 4.7 15.9 - -1.8 - 1.68 0.05 - 0.13 - 0.31 - 7.9 6.4 15.7 - 12.4
Avg - - - - - - - 1.9 - - - - - 35.4 - - 0.27 0.00 3.1 0.5 - - - - 0.90 - - - - - - 3.7 1.3 11.5 - -
Min 52.7 - 21.7 - 0.00 0.00 0.29 0.4 6.8 - 0.033 0.32 123 25.5 83 12 0.00 0.00 0.1 0.0 0.6 - -4.8 - 0.11 0.01 - 0.01 - 0.01 - 0.0 0.0 0.0 - 12.2
Total - - - - - - - - - - - - - - - - 8.22 0.00 93.2 13.8 - - - - - - - - - - - 109.7 38.9 345.1 - -